X  Close Metar Aviation Weather Data     EGHH Bournemouth Airport
Temperature
14°C Temperature
13°C Dewpoint
94% Humidity



Wind
13 MPH
21 KM/H
6 M/S
11 KTS



10°
North
Current Conditions

Light Rain Light Rain
Pressure 1011.92 (hPa) - 29.88 (inHg)
Visibility 5 (mile) - 8 (km)
Airport
Airport-code EGHH

Location: Bournemouth Airport
Distance: 14 (mi)

Metar:
EGHH 181420Z 01011KT 320V060 8000 -RA FEW007 BKN009 14/13 Q1012

Time: 18-06-2021 15:20 BST